Time;durP1;ratioP1;P1;durP2;ratioP2;P2;SDS_P1;SDS_P2;PMS_P1;PMS_P2;Temp;Humidity;BMP_temperature;BMP_pressure;BME280_temperature;BME280_humidity;BME280_pressure;Samples;Min_cycle;Max_cycle;Signal;HPM_P1;HPM_P2
2022/06/27 00:00:50;;;;;;;;;3.00;2.75;;;;;18.49;55.83;101218.66;6322671;22;45306;-95
2022/06/27 00:03:16;;;;;;;;;4.00;2.50;;;;;18.48;55.77;101207.28;6326418;22;45392;-96
2022/06/27 00:06:14;;;;;;;;;4.00;2.75;;;;;18.49;55.72;101211.59;6325203;22;46870;-96
2022/06/27 00:08:39;;;;;;;;;2.00;2.00;;;;;18.46;55.91;101200.38;6235193;22;45223;-96
2022/06/27 00:11:05;;;;;;;;;2.00;2.00;;;;;18.44;56.52;101203.09;6222617;22;45243;-96
2022/06/27 00:13:40;;;;;;;;;3.75;1.50;;;;;18.42;55.63;101202.31;6223087;22;45562;-96
2022/06/27 00:16:41;;;;;;;;;2.50;2.50;;;;;18.40;55.87;101198.91;6230821;22;47071;-96
2022/06/27 00:19:06;;;;;;;;;1.75;1.75;;;;;18.41;56.73;101200.63;6253958;22;45151;-96
2022/06/27 00:21:32;;;;;;;;;3.75;2.00;;;;;18.43;56.01;101209.31;6222821;22;44692;-96
2022/06/27 00:24:02;;;;;;;;;3.25;2.00;;;;;18.38;55.85;101208.69;6249176;22;45232;-95
2022/06/27 00:26:31;;;;;;;;;4.50;3.50;;;;;18.35;56.94;101201.81;6199525;22;47900;-96
2022/06/27 00:28:58;;;;;;;;;1.75;1.25;;;;;18.29;56.05;101204.75;6252544;22;45180;-95
2022/06/27 00:31:38;;;;;;;;;;;;;;;;;;;;;
2022/06/27 00:34:22;;;;;;;;;2.75;1.75;;;;;18.27;56.01;101203.16;6254179;22;70367;-96
2022/06/27 00:37:06;;;;;;;;;;;;;;;;;;;;;
2022/06/27 00:39:32;;;;;;;;;3.00;1.00;;;;;18.23;56.46;101191.09;6228386;22;72856;-96
2022/06/27 00:42:05;;;;;;;;;2.00;2.00;;;;;18.24;56.59;101191.00;6229231;22;44639;-96
2022/06/27 00:44:52;;;;;;;;;4.00;2.00;;;;;18.23;56.16;101184.03;6233757;22;45243;-96
2022/06/27 00:47:52;;;;;;;;;;;;;;;;;;;;;
2022/06/27 00:50:20;;;;;;;;;3.25;1.50;;;;;18.19;56.90;101200.94;6254115;22;72119;-96
2022/06/27 00:52:48;;;;;;;;;4.00;2.75;;;;;18.14;57.10;101205.59;6198558;22;45500;-96
2022/06/27 00:55:15;;;;;;;;;2.75;2.00;;;;;18.08;56.92;101204.13;6249377;22;45197;-96
2022/06/27 00:57:55;;;;;;;;;2.00;2.00;;;;;18.04;57.13;101207.03;6225081;22;47082;-96
2022/06/27 01:00:26;;;;;;;;;2.75;2.00;;;;;18.03;56.99;101211.44;6228755;22;45120;-96
2022/06/27 01:02:52;;;;;;;;;1.75;1.75;;;;;18.01;56.75;101207.19;6225132;22;45211;-96
2022/06/27 01:05:17;;;;;;;;;3.75;2.50;;;;;18.02;57.32;101211.53;6251486;22;45444;-95
2022/06/27 01:07:57;;;;;;;;;;;;;;;;;;;;;
2022/06/27 01:10:27;;;;;;;;;2.75;2.00;;;;;18.09;57.19;101220.78;6247940;22;74120;-95
2022/06/27 01:12:57;;;;;;;;;2.75;2.00;;;;;18.14;56.91;101224.03;6249900;22;45278;-96
2022/06/27 01:15:35;;;;;;;;;1.00;1.00;;;;;18.18;57.29;101217.66;6225301;22;45307;-95
2022/06/27 01:18:00;;;;;;;;;3.00;2.00;;;;;18.23;57.00;101225.34;6251345;22;45323;-96
2022/06/27 01:20:30;;;;;;;;;3.00;2.00;;;;;18.24;56.98;101222.63;6200804;22;45253;-96
2022/06/27 01:23:12;;;;;;;;;2.00;2.00;;;;;18.29;57.22;101222.38;6251889;22;45254;-95
2022/06/27 01:25:39;;;;;;;;;3.00;3.00;;;;;18.27;57.72;101213.69;6228267;22;45232;-96
2022/06/27 01:28:38;;;;;;;;;;;;;;;;;;;;;
2022/06/27 01:31:27;;;;;;;;;4.50;2.00;;;;;18.25;57.48;101211.13;6250639;22;72460;-96
2022/06/27 01:33:58;;;;;;;;;4.25;2.00;;;;;18.30;57.14;101203.84;6230323;22;45224;-96
2022/06/27 01:36:46;;;;;;;;;3.00;3.00;;;;;18.29;57.36;101198.66;6255960;22;44873;-96
2022/06/27 01:39:40;;;;;;;;;3.75;2.00;;;;;18.25;56.95;101210.28;6231214;22;47562;-96
2022/06/27 01:42:18;;;;;;;;;1.00;1.00;;;;;18.26;57.15;101231.31;6254482;22;45352;-96
2022/06/27 01:44:53;;;;;;;;;2.00;1.75;;;;;18.25;56.66;101218.19;6225999;22;45254;-96
2022/06/27 01:47:29;;;;;;;;;;;;;;;;;;;;;
2022/06/27 01:50:02;;;;;;;;;5.50;2.25;;;;;18.27;56.93;101219.81;6251493;22;75892;-95
2022/06/27 01:52:33;;;;;;;;;3.75;2.00;;;;;18.30;56.84;101224.09;6198044;22;44814;-96
2022/06/27 01:55:15;;;;;;;;;;;;;;;;;;;;;
2022/06/27 01:57:49;;;;;;;;;2.00;2.00;;;;;18.34;57.08;101215.91;6253899;22;69686;-96
2022/06/27 02:00:15;;;;;;;;;2.75;1.50;;;;;18.33;57.17;101216.88;6224354;22;48002;-96
2022/06/27 02:02:53;;;;;;;;;5.00;2.00;;;;;18.33;57.10;101213.34;6251385;22;44903;-96
2022/06/27 02:06:12;;;;;;;;;;;;;;;;;;;;;
2022/06/27 02:09:14;;;;;;;;;;;;;;;;;;;;;
2022/06/27 02:12:22;;;;;;;;;1.25;1.25;;;;;18.21;57.74;101199.06;6176142;22;74985;-96
2022/06/27 02:15:07;;;;;;;;;4.00;3.00;;;;;18.22;57.72;101205.19;6049015;23;45278;-96
2022/06/27 02:17:46;;;;;;;;;3.00;3.00;;;;;18.19;57.76;101200.94;6054454;23;45341;-96
2022/06/27 02:20:39;;;;;;;;;2.50;2.25;;;;;18.16;57.33;101186.16;6020892;23;44925;-95
2022/06/27 02:23:15;;;;;;;;;3.50;3.00;;;;;18.17;58.18;101184.38;6042305;23;45317;-96
2022/06/27 02:25:43;;;;;;;;;5.00;2.25;;;;;18.08;57.79;101198.03;6041062;23;45211;-96
2022/06/27 02:28:36;;;;;;;;;3.25;1.50;;;;;18.00;57.62;101198.44;5993265;23;45199;-96
2022/06/27 02:31:05;;;;;;;;;3.00;3.00;;;;;17.99;58.02;101207.25;6009895;23;45517;-96
2022/06/27 02:33:39;;;;;;;;;2.00;2.00;;;;;17.97;57.97;101209.97;6040461;23;47203;-96
2022/06/27 02:36:10;;;;;;;;;3.50;3.00;;;;;17.98;58.11;101216.09;6042797;23;45245;-95
2022/06/27 02:38:42;;;;;;;;;3.25;2.00;;;;;18.01;57.26;101217.72;6042113;23;45274;-96
2022/06/27 02:41:12;;;;;;;;;4.00;2.00;;;;;18.02;57.88;101214.16;6041722;23;44812;-96
2022/06/27 02:43:42;;;;;;;;;2.00;2.00;;;;;18.07;57.27;101215.63;6071599;23;46087;-96
2022/06/27 02:46:08;;;;;;;;;2.00;2.00;;;;;18.12;57.75;101210.94;6146959;22;45242;-95
2022/06/27 02:48:38;;;;;;;;;2.00;2.00;;;;;18.13;57.73;101223.19;6162688;22;45314;-96
2022/06/27 02:51:11;;;;;;;;;1.25;1.25;;;;;18.17;57.72;101221.25;6213864;22;45287;-95
2022/06/27 02:54:55;;;;;;;;;1.50;1.25;;;;;18.22;57.88;101227.13;6161541;22;47674;-94
2022/06/27 02:58:15;;;;;;;;;1.00;1.00;;;;;18.20;58.48;101228.97;6175979;23;45750;-95
2022/06/27 03:00:41;;;;;;;;;3.00;2.00;;;;;18.13;58.72;101217.09;6121939;23;45391;-96
2022/06/27 03:03:07;;;;;;;;;2.75;2.00;;;;;18.09;58.52;101205.84;6098303;23;45292;-95
2022/06/27 03:05:37;;;;;;;;;1.50;1.50;;;;;18.04;58.68;101218.41;6122796;23;46875;-95
2022/06/27 03:08:12;;;;;;;;;3.00;2.00;;;;;18.04;57.89;101228.94;6098737;23;45772;-95
2022/06/27 03:11:12;;;;;;;;;;;;;;;;;;;;;
2022/06/27 03:13:47;;;;;;;;;1.25;1.25;;;;;18.05;58.07;101219.25;6106241;23;69258;-96
2022/06/27 03:16:19;;;;;;;;;1.00;1.00;;;;;18.10;58.37;101228.63;6127716;23;45225;-96
2022/06/27 03:18:50;;;;;;;;;4.50;2.00;;;;;18.12;58.24;101229.38;6103686;23;45652;-96
2022/06/27 03:21:20;;;;;;;;;2.75;2.00;;;;;18.16;58.12;101223.03;6128260;23;45421;-96
2022/06/27 03:23:55;;;;;;;;;2.00;2.00;;;;;18.17;58.51;101218.63;6130694;23;45394;-95
2022/06/27 03:32:36;;;;;;;;;2.25;2.00;;;;;18.18;58.10;101205.38;6338811;22;45325;-95
2022/06/27 03:35:30;;;;;;;;;2.00;2.00;;;;;18.19;59.04;101217.59;6290102;22;45325;-96
2022/06/27 03:38:09;;;;;;;;;;;;;;;;;;;;;
2022/06/27 03:41:20;;;;;;;;;;;;;;;;;;;;;
2022/06/27 03:43:56;;;;;;;;;;;;;;;;;;;;;
2022/06/27 03:46:22;;;;;;;;;2.50;2.00;;;;;18.10;58.99;101194.38;6311966;22;70220;-91
2022/06/27 03:51:43;;;;;;;;;2.00;2.00;;;;;18.10;58.90;101199.63;6314771;22;45570;-94
2022/06/27 03:54:08;;;;;;;;;2.00;2.00;;;;;18.10;58.74;101204.06;6312392;22;45235;-93
2022/06/27 03:57:04;;;;;;;;;;;;;;;;;;;;;
2022/06/27 03:59:32;;;;;;;;;3.50;3.00;;;;;18.12;58.42;101204.81;6315513;22;74838;-95
2022/06/27 04:02:09;;;;;;;;;3.75;2.50;;;;;18.14;58.38;101205.59;6291420;22;45350;-96
2022/06/27 04:04:36;;;;;;;;;3.00;2.00;;;;;18.16;58.52;101215.13;6316596;22;45333;-95
2022/06/27 04:07:15;;;;;;;;;4.00;2.25;;;;;18.15;58.13;101221.31;6286497;22;45317;-96
2022/06/27 04:09:50;;;;;;;;;;;;;;;;;;;;;
2022/06/27 04:12:16;;;;;;;;;3.00;3.00;;;;;18.07;57.87;101214.75;6316394;22;72935;-96
2022/06/27 04:14:47;;;;;;;;;1.00;1.00;;;;;18.08;58.25;101225.22;6312556;22;45252;-95
2022/06/27 04:20:59;;;;;;;;;1.00;1.00;;;;;18.01;58.43;101234.38;6158188;23;46527;-93
2022/06/27 04:23:47;;;;;;;;;3.00;2.00;;;;;18.10;57.97;101252.31;6161460;23;44940;-96
2022/06/27 04:26:20;;;;;;;;;2.75;2.00;;;;;18.07;58.14;101252.50;6181425;23;45281;-96
2022/06/27 04:32:55;;;;;;;;;;;;;;;;;;;;;
2022/06/27 04:35:41;;;;;;;;;4.25;2.00;;;;;18.12;57.40;101271.53;6161849;23;71732;-96
2022/06/27 04:38:59;;;;;;;;;;;;;;;;;;;;;
2022/06/27 04:41:24;;;;;;;;;;;;;;;;;;;;;
2022/06/27 04:44:14;;;;;;;;;2.00;2.00;;;;;18.12;57.89;101289.13;6140096;23;74820;-96
2022/06/27 04:47:09;;;;;;;;;;;;;;;;;;;;;
2022/06/27 04:49:48;;;;;;;;;2.00;2.00;;;;;18.04;57.14;101278.16;6162717;23;68788;-96
2022/06/27 04:52:26;;;;;;;;;2.75;1.75;;;;;18.05;57.21;101280.69;6133073;23;45361;-96
2022/06/27 04:54:59;;;;;;;;;3.00;1.50;;;;;18.04;57.68;101273.72;6139929;23;47014;-96
2022/06/27 04:57:58;;;;;;;;;2.00;2.00;;;;;18.07;57.20;101267.44;6148920;23;45004;-95
2022/06/27 05:00:37;;;;;;;;;;;;;;;;;;;;;
2022/06/27 05:04:06;;;;;;;;;;;;;;;;;;;;;
2022/06/27 05:10:03;;;;;;;;;;;;;;;;;;;;;
2022/06/27 05:12:49;;;;;;;;;1.50;1.50;;;;;18.23;56.58;101242.00;6144484;23;45270;-96
2022/06/27 05:15:36;;;;;;;;;;;;;;;;;;;;;
2022/06/27 05:18:11;;;;;;;;;2.50;2.00;;;;;18.23;56.60;101249.91;6139173;23;76062;-96
2022/06/27 05:21:07;;;;;;;;;;;;;;;;;;;;;
2022/06/27 05:23:46;;;;;;;;;3.00;3.00;;;;;18.19;57.00;101245.72;6132315;23;69001;-96
2022/06/27 05:26:26;;;;;;;;;4.25;2.00;;;;;18.17;57.28;101248.44;6139883;23;45280;-96
2022/06/27 05:29:05;;;;;;;;;4.00;2.50;;;;;18.21;57.94;101258.81;6137673;23;45561;-96
2022/06/27 05:31:57;;;;;;;;;5.00;3.00;;;;;18.24;57.02;101242.84;6137273;23;45276;-96
2022/06/27 05:35:16;;;;;;;;;;;;;;;;;;;;;
2022/06/27 05:38:07;;;;;;;;;;;;;;;;;;;;;
2022/06/27 05:40:45;;;;;;;;;;;;;;;;;;;;;
2022/06/27 05:43:40;;;;;;;;;;;;;;;;;;;;;
2022/06/27 05:46:42;;;;;;;;;;;;;;;;;;;;;
2022/06/27 05:52:16;;;;;;;;;3.25;1.50;;;;;18.25;56.83;101268.25;6126594;23;45828;-96
2022/06/27 05:54:55;;;;;;;;;;;;;;;;;;;;;
2022/06/27 05:57:40;;;;;;;;;;;;;;;;;;;;;
2022/06/27 06:03:25;;;;;;;;;1.25;1.25;;;;;18.27;56.92;101290.13;6042890;23;45487;-96
2022/06/27 06:06:28;;;;;;;;;1.00;1.00;;;;;18.27;57.25;101295.38;6029188;23;45344;-96
2022/06/27 06:15:08;;;;;;;;;4.00;2.50;;;;;18.24;56.88;101312.22;6325209;22;46967;-96
2022/06/27 06:17:34;;;;;;;;;2.50;2.50;;;;;18.23;57.08;101299.97;6314796;22;45650;-91
2022/06/27 06:20:00;;;;;;;;;4.00;2.50;;;;;18.26;56.95;101312.16;6309914;22;45240;-87
2022/06/27 06:22:26;;;;;;;;;3.00;2.00;;;;;18.28;56.83;101315.56;6308988;22;45430;-86
2022/06/27 06:24:51;;;;;;;;;2.00;2.00;;;;;18.33;57.08;101297.69;6308638;22;47841;-87
2022/06/27 06:27:17;;;;;;;;;3.00;2.00;;;;;18.40;57.22;101290.31;6336587;22;45286;-84
2022/06/27 06:29:44;;;;;;;;;3.50;2.00;;;;;18.46;56.88;101305.81;6336633;22;45289;-84
2022/06/27 06:32:10;;;;;;;;;3.50;3.00;;;;;18.49;56.54;101332.84;6337224;22;45344;-84
2022/06/27 06:34:36;;;;;;;;;2.00;2.00;;;;;18.52;56.94;101340.63;6308791;22;46100;-85
2022/06/27 06:37:02;;;;;;;;;3.00;3.00;;;;;18.58;56.73;101332.38;6308760;22;45356;-83
2022/06/27 06:39:28;;;;;;;;;3.00;3.00;;;;;18.64;57.24;101335.63;6336728;22;45264;-84
2022/06/27 06:41:54;;;;;;;;;3.75;2.00;;;;;18.61;57.01;101341.91;6309207;22;45488;-84
2022/06/27 06:44:19;;;;;;;;;2.50;2.50;;;;;18.60;56.62;101350.75;6308800;22;47883;-83
2022/06/27 06:46:45;;;;;;;;;3.00;2.25;;;;;18.56;56.99;101355.31;6309037;22;45294;-84
2022/06/27 06:49:11;;;;;;;;;2.00;2.00;;;;;18.58;57.07;101365.78;6308885;22;45364;-84
2022/06/27 06:51:39;;;;;;;;;2.00;2.00;;;;;18.59;56.96;101375.44;6308902;22;45230;-84
2022/06/27 06:54:05;;;;;;;;;4.00;2.25;;;;;18.62;57.09;101380.50;6308752;22;46143;-83
2022/06/27 06:56:31;;;;;;;;;5.75;3.00;;;;;18.66;56.82;101373.31;6309124;22;45318;-86
2022/06/27 06:59:00;;;;;;;;;2.00;2.00;;;;;18.72;57.18;101383.50;6308894;22;45328;-85
2022/06/27 07:01:27;;;;;;;;;2.00;2.00;;;;;18.75;56.50;101386.00;6335049;22;45315;-84
2022/06/27 07:03:54;;;;;;;;;2.25;1.25;;;;;18.78;56.47;101385.84;6308218;22;47144;-84
2022/06/27 07:06:24;;;;;;;;;4.25;2.00;;;;;18.86;56.71;101396.03;6308547;22;45701;-84
2022/06/27 07:08:53;;;;;;;;;1.75;1.75;;;;;19.01;56.21;101394.34;6310008;22;45210;-85
2022/06/27 07:11:21;;;;;;;;;4.00;4.00;;;;;19.16;55.58;101406.69;6309281;22;45448;-84
2022/06/27 07:13:47;;;;;;;;;2.25;2.25;;;;;19.27;55.43;101406.97;6336009;22;46584;-84
2022/06/27 07:16:14;;;;;;;;;4.00;2.00;;;;;19.22;54.83;101419.53;6308986;22;45640;-84
2022/06/27 07:18:39;;;;;;;;;4.00;3.00;;;;;19.10;54.83;101415.81;6335979;22;45355;-84
2022/06/27 07:21:06;;;;;;;;;4.00;2.00;;;;;18.94;54.96;101420.19;6308776;22;45326;-85
2022/06/27 07:23:32;;;;;;;;;2.75;2.00;;;;;18.82;55.68;101434.88;6308767;22;47172;-83
2022/06/27 07:25:57;;;;;;;;;3.50;1.00;;;;;18.68;56.38;101437.34;6336267;22;45336;-84
2022/06/27 07:28:26;;;;;;;;;4.00;3.00;;;;;18.64;56.32;101434.03;6336965;22;45206;-84
2022/06/27 07:30:51;;;;;;;;;2.50;2.00;;;;;18.72;56.77;101441.53;6336325;22;45310;-82
2022/06/27 07:33:17;;;;;;;;;2.00;2.00;;;;;18.75;56.56;101434.31;6308031;22;47221;-83
2022/06/27 07:35:43;;;;;;;;;3.00;3.00;;;;;18.80;56.40;101435.88;6308406;22;45322;-83
2022/06/27 07:38:08;;;;;;;;;3.25;2.25;;;;;18.87;56.79;101434.63;6308819;22;45284;-86
2022/06/27 07:40:34;;;;;;;;;8.50;2.75;;;;;18.89;56.01;101431.00;6282880;22;45532;-87
2022/06/27 07:42:59;;;;;;;;;3.00;2.00;;;;;19.05;55.86;101422.25;6309434;22;46853;-87
2022/06/27 07:45:27;;;;;;;;;3.00;3.00;;;;;19.19;55.76;101418.91;6309312;22;45294;-89
2022/06/27 07:47:54;;;;;;;;;3.50;2.50;;;;;19.34;55.78;101425.97;6335313;22;45340;-88
2022/06/27 07:50:39;;;;;;;;;4.50;2.50;;;;;19.49;54.71;101424.25;6306640;22;45551;-89
2022/06/27 07:53:17;;;;;;;;;4.75;2.25;;;;;19.52;54.70;101424.09;6313146;22;47678;-90
2022/06/27 07:55:46;;;;;;;;;2.00;2.00;;;;;19.60;54.59;101432.44;6310536;22;45372;-88
2022/06/27 07:58:14;;;;;;;;;2.50;1.75;;;;;19.79;54.82;101440.19;6335815;22;45225;-88
2022/06/27 08:00:41;;;;;;;;;2.00;2.00;;;;;20.02;53.86;101438.03;6304081;22;45626;-89
2022/06/27 08:03:51;;;;;;;;;3.00;3.00;;;;;20.16;53.29;101432.81;6307205;22;46783;-88
2022/06/27 08:05:53;;;;;;;;;2.00;2.00;;;;;20.14;52.69;101444.44;6309820;22;45723;-86
2022/06/27 08:08:21;;;;;;;;;5.25;3.25;;;;;20.07;52.49;101441.28;6286679;22;45379;-88
2022/06/27 08:10:46;;;;;;;;;2.75;2.25;;;;;20.08;52.92;101446.47;6310741;22;45626;-88
2022/06/27 08:13:12;;;;;;;;;2.75;2.75;;;;;20.08;52.09;101450.91;6311062;22;46820;-89
2022/06/27 08:15:37;;;;;;;;;2.50;2.00;;;;;20.02;51.81;101445.97;6320552;22;45337;-88
2022/06/27 08:18:04;;;;;;;;;3.25;2.75;;;;;20.00;51.66;101448.72;6330143;22;54450;-88
2022/06/27 08:20:29;;;;;;;;;5.75;2.00;;;;;19.93;51.85;101450.00;6324541;22;45358;-88
2022/06/27 08:22:55;;;;;;;;;1.00;1.00;;;;;19.80;52.12;101456.91;6356309;22;66420;-89
2022/06/27 08:25:21;;;;;;;;;3.00;3.00;;;;;19.51;53.34;101465.47;6334256;22;45170;-88
2022/06/27 08:27:49;;;;;;;;;3.00;2.00;;;;;19.26;53.80;101478.31;6358042;22;45204;-90
2022/06/27 08:30:15;;;;;;;;;3.00;3.00;;;;;19.01;55.88;101507.78;6304235;22;45331;-88
2022/06/27 08:32:41;;;;;;;;;2.75;2.75;;;;;18.81;58.50;101520.22;6325758;22;45320;-88
2022/06/27 08:35:08;;;;;;;;;3.00;3.00;;;;;18.61;60.39;101512.41;6320470;22;45217;-90
2022/06/27 08:37:34;;;;;;;;;4.75;4.00;;;;;18.50;62.29;101497.16;6357119;22;45165;-90
2022/06/27 08:40:01;;;;;;;;;2.50;2.50;;;;;18.40;60.61;101486.22;6307472;22;45500;-92
2022/06/27 08:42:28;;;;;;;;;3.00;2.00;;;;;18.34;60.56;101468.91;6331914;22;47160;-92
2022/06/27 08:44:53;;;;;;;;;2.00;2.00;;;;;18.40;60.48;101462.47;6328516;22;45263;-93
2022/06/27 08:47:20;;;;;;;;;3.75;2.00;;;;;18.50;60.54;101442.66;6298165;22;45251;-92
2022/06/27 08:49:46;;;;;;;;;1.75;1.75;;;;;18.60;60.26;101440.38;6328774;22;45523;-92
2022/06/27 08:52:11;;;;;;;;;4.00;2.50;;;;;18.65;61.96;101448.91;6325321;22;45370;-91
2022/06/27 08:54:37;;;;;;;;;4.00;2.50;;;;;18.67;60.79;101449.69;6326233;22;45124;-92
2022/06/27 08:57:04;;;;;;;;;2.50;2.50;;;;;18.66;61.83;101455.88;6326184;22;45394;-90
2022/06/27 08:59:30;;;;;;;;;4.25;3.00;;;;;18.67;60.49;101447.06;6321918;22;45363;-92
2022/06/27 09:01:56;;;;;;;;;3.00;3.00;;;;;18.67;60.44;101441.78;6312187;22;45714;-92
2022/06/27 09:04:21;;;;;;;;;6.50;4.00;;;;;18.73;61.63;101446.72;6288111;22;45372;-91
2022/06/27 09:06:47;;;;;;;;;4.00;2.00;;;;;18.89;61.47;101454.75;6286577;22;45258;-92
2022/06/27 09:09:15;;;;;;;;;6.00;3.00;;;;;18.97;60.22;101456.97;6312383;22;45468;-92
2022/06/27 09:11:49;;;;;;;;;4.00;3.00;;;;;18.96;60.44;101463.16;6287618;22;47421;-93
2022/06/27 09:14:50;;;;;;;;;4.00;3.00;;;;;18.82;59.46;101466.53;6313541;22;45333;-93
2022/06/27 09:17:16;;;;;;;;;3.25;3.00;;;;;18.72;60.79;101468.78;6159927;23;45334;-92
2022/06/27 09:19:56;;;;;;;;;4.00;3.00;;;;;18.70;61.26;101454.81;6160552;23;45386;-93
2022/06/27 09:25:39;;;;;;;;;1.25;1.00;;;;;18.71;59.43;101451.22;6181025;23;45695;-93
2022/06/27 09:28:12;;;;;;;;;3.00;2.75;;;;;18.76;60.55;101458.94;6185488;23;45279;-93
2022/06/27 09:31:52;;;;;;;;;;;;;;;;;;;;;
2022/06/27 09:34:53;;;;;;;;;;;;;;;;;;;;;
2022/06/27 09:41:00;;;;;;;;;;;;;;;;;;;;;
2022/06/27 09:44:14;;;;;;;;;2.00;2.00;;;;;18.89;57.59;101457.38;6041863;23;68552;-94
2022/06/27 09:46:43;;;;;;;;;3.00;0.00;;;;;19.00;58.48;101463.84;6010989;23;45265;-91
2022/06/27 09:59:26;;;;;;;;;1.25;1.25;;;;;19.48;52.98;101467.44;5975153;23;45870;-92
2022/06/27 10:21:54;;;;;;;;;2.00;0.00;;;;;20.28;48.28;101462.94;5129506;27;45370;-89
2022/06/27 10:24:21;;;;;;;;;1.50;0.00;;;;;20.42;46.41;101467.44;5110209;27;45641;-88
2022/06/27 10:26:50;;;;;;;;;0.75;0.75;;;;;20.57;45.38;101470.97;5111216;27;45369;-90
2022/06/27 10:29:33;;;;;;;;;1.00;1.00;;;;;20.72;44.37;101466.59;5112099;27;45434;-86
2022/06/27 10:32:22;;;;;;;;;0.00;0.00;;;;;20.80;44.98;101470.50;5114828;27;45414;-93
2022/06/27 10:34:53;;;;;;;;;0.75;0.75;;;;;20.99;43.79;101472.03;5104430;27;46245;-88
2022/06/27 10:37:19;;;;;;;;;2.00;0.75;;;;;21.13;44.73;101461.41;5112176;27;45803;-92
2022/06/27 10:39:44;;;;;;;;;2.00;0.00;;;;;21.24;43.73;101461.59;5111452;27;45339;-89
2022/06/27 10:42:53;;;;;;;;;1.75;1.00;;;;;21.48;42.62;101468.97;5093739;27;47434;-92
2022/06/27 10:45:28;;;;;;;;;1.00;1.00;;;;;21.64;42.40;101468.88;5112819;27;45286;-89
2022/06/27 10:47:54;;;;;;;;;1.25;1.00;;;;;21.73;42.75;101465.63;5096195;27;45406;-89
2022/06/27 10:50:22;;;;;;;;;1.00;1.00;;;;;21.85;43.59;101464.81;5131298;27;45484;-85
2022/06/27 10:52:48;;;;;;;;;1.00;1.00;;;;;21.99;40.42;101468.34;5096498;27;47299;-86
2022/06/27 10:55:21;;;;;;;;;1.00;1.00;;;;;22.13;41.05;101470.97;5125862;27;45478;-87
2022/06/27 10:57:47;;;;;;;;;2.75;1.00;;;;;22.16;40.03;101464.63;5110787;27;45395;-87
2022/06/27 11:00:35;;;;;;;;;3.00;3.00;;;;;22.24;40.76;101471.09;5093991;27;45543;-86
2022/06/27 11:03:01;;;;;;;;;11.00;9.25;;;;;22.42;40.09;101469.06;5095244;27;45582;-85
2022/06/27 11:05:28;;;;;;;;;4.25;3.25;;;;;22.53;39.87;101472.78;5110500;27;48924;-85
2022/06/27 11:07:53;;;;;;;;;1.00;1.00;;;;;22.58;38.93;101462.69;5127417;27;45517;-85
2022/06/27 11:10:20;;;;;;;;;1.25;1.25;;;;;22.69;39.09;101465.47;5125415;27;45379;-86
2022/06/27 11:12:46;;;;;;;;;2.25;0.00;;;;;22.88;39.54;101459.75;5124908;27;46258;-86
2022/06/27 11:15:14;;;;;;;;;1.50;0.00;;;;;23.14;36.10;101457.09;5125560;27;64741;-87
2022/06/27 11:17:44;;;;;;;;;3.00;1.00;;;;;23.39;37.24;101451.72;5126673;27;45553;-86
2022/06/27 11:20:17;;;;;;;;;0.50;0.50;;;;;23.66;35.03;101458.69;5106375;27;45547;-85
2022/06/27 11:22:47;;;;;;;;;1.00;0.75;;;;;23.89;33.97;101461.50;5095158;27;47270;-88
2022/06/27 11:25:13;;;;;;;;;0.50;0.50;;;;;24.08;34.26;101464.47;5078868;27;45582;-86
2022/06/27 11:27:46;;;;;;;;;0.00;0.00;;;;;24.27;35.14;101463.94;5097511;27;45367;-86
2022/06/27 11:33:18;;;;;;;;;0.75;0.75;;;;;25.36;33.39;101453.84;5096678;27;45883;-84
2022/06/27 11:35:45;;;;;;;;;1.00;1.00;;;;;28.70;30.32;101464.94;5095047;27;45425;-83
2022/06/27 11:38:10;;;;;;;;;1.00;1.00;;;;;32.62;24.82;101474.09;5092560;27;45368;-83
2022/06/27 11:40:36;;;;;;;;;2.25;0.00;;;;;35.47;22.29;101465.78;5094139;27;45549;-84
2022/06/27 11:43:02;;;;;;;;;0.50;0.50;;;;;37.74;22.52;101484.44;5110681;27;46696;-86
2022/06/27 11:45:37;;;;;;;;;0.75;0.75;;;;;39.96;18.81;101488.28;5094662;27;45368;-85
2022/06/27 11:48:17;;;;;;;;;2.25;0.25;;;;;41.17;15.02;101488.72;5078866;27;45497;-86
2022/06/27 11:50:42;;;;;;;;;2.00;0.75;;;;;41.69;15.26;101490.97;5094445;27;45313;-84
2022/06/27 11:53:08;;;;;;;;;2.00;0.00;;;;;40.08;15.83;101488.38;5096519;27;46099;-85
2022/06/27 11:55:33;;;;;;;;;0.00;0.00;;;;;39.56;15.14;101494.78;5111092;27;45336;-84
2022/06/27 11:58:01;;;;;;;;;0.00;0.00;;;;;40.02;15.20;101481.91;5092410;27;53565;-83
2022/06/27 12:00:29;;;;;;;;;0.25;0.00;;;;;40.03;14.21;101489.06;5099674;27;45477;-82
2022/06/27 12:03:04;;;;;;;;;0.00;0.00;;;;;39.96;14.85;101486.38;5109750;27;46180;-82
2022/06/27 12:05:30;;;;;;;;;0.00;0.00;;;;;40.43;13.71;101494.16;5096555;27;45309;-84
2022/06/27 12:08:12;;;;;;;;;0.75;0.00;;;;;40.51;16.63;101490.28;5094131;27;45274;-84
2022/06/27 12:13:36;;;;;;;;;0.00;0.00;;;;;39.42;15.27;101476.84;5093472;27;45482;-83
2022/06/27 12:16:06;;;;;;;;;0.75;0.00;;;;;37.91;15.85;101486.75;5094833;27;45544;-85
2022/06/27 12:18:36;;;;;;;;;1.00;0.00;;;;;37.58;17.07;101491.06;5108849;27;45560;-84
2022/06/27 12:21:02;;;;;;;;;0.00;0.00;;;;;37.62;16.55;101487.97;5111044;27;45328;-85
2022/06/27 12:23:28;;;;;;;;;0.50;0.00;;;;;37.70;14.87;101493.22;5111340;27;46794;-85
2022/06/27 12:25:53;;;;;;;;;0.75;0.00;;;;;37.54;15.45;101497.13;5088933;27;45444;-84
2022/06/27 12:28:18;;;;;;;;;1.75;0.00;;;;;37.09;13.91;101494.84;5094066;27;45581;-84
2022/06/27 12:30:44;;;;;;;;;0.00;0.00;;;;;35.55;14.75;101497.31;5092867;27;61641;-86
2022/06/27 12:33:09;;;;;;;;;0.00;0.00;;;;;34.17;16.46;101498.66;5094675;27;46225;-88
2022/06/27 12:35:35;;;;;;;;;1.00;0.00;;;;;33.11;17.94;101503.59;5095152;27;51723;-87
2022/06/27 12:38:01;;;;;;;;;0.00;0.00;;;;;33.15;18.08;101513.91;5096656;27;45370;-87
2022/06/27 12:40:27;;;;;;;;;0.00;0.00;;;;;33.76;18.66;101510.56;5089934;27;45592;-87
2022/06/27 12:42:52;;;;;;;;;0.00;0.00;;;;;35.79;17.11;101515.09;5076764;27;46216;-88
2022/06/27 12:45:18;;;;;;;;;0.00;0.00;;;;;37.91;17.45;101505.75;5078295;27;45479;-87
2022/06/27 12:47:43;;;;;;;;;1.00;0.00;;;;;40.36;15.21;101507.00;5095464;27;45427;-87
2022/06/27 12:50:09;;;;;;;;;0.50;0.00;;;;;41.68;12.63;101512.00;5095892;27;45535;-87
2022/06/27 12:52:34;;;;;;;;;0.25;0.00;;;;;39.48;12.68;101512.22;5094761;27;46516;-87
2022/06/27 12:54:59;;;;;;;;;1.00;0.00;;;;;39.99;14.15;101515.06;5088700;27;45708;-86
2022/06/27 12:57:25;;;;;;;;;0.00;0.00;;;;;42.07;11.49;101519.81;5092233;27;48897;-87
2022/06/27 12:59:52;;;;;;;;;0.00;0.00;;;;;43.55;10.64;101510.44;5093339;27;45450;-86
2022/06/27 13:02:17;;;;;;;;;0.00;0.00;;;;;43.25;11.52;101506.84;5095612;27;45404;-88
2022/06/27 13:04:42;;;;;;;;;0.00;0.00;;;;;42.60;11.50;101518.91;5092340;27;50848;-89
2022/06/27 13:07:08;;;;;;;;;0.00;0.00;;;;;40.03;12.94;101513.59;5093442;27;45359;-86
2022/06/27 13:09:33;;;;;;;;;0.00;0.00;;;;;37.32;14.17;101527.13;5108828;27;45487;-86
2022/06/27 13:11:58;;;;;;;;;0.00;0.00;;;;;37.13;14.91;101525.09;5093200;27;56030;-88
2022/06/27 13:14:24;;;;;;;;;0.00;0.00;;;;;39.73;12.15;101522.38;5095541;27;45394;-90
2022/06/27 13:16:51;;;;;;;;;0.00;0.00;;;;;40.34;12.47;101514.59;5093261;27;45503;-89
2022/06/27 13:19:17;;;;;;;;;0.00;0.00;;;;;37.74;13.54;101519.75;5081789;27;45311;-85
2022/06/27 13:21:42;;;;;;;;;0.75;0.00;;;;;35.62;14.95;101526.13;5076094;27;47124;-86
2022/06/27 13:24:07;;;;;;;;;0.00;0.00;;;;;37.08;15.80;101514.88;5110354;27;51652;-85
2022/06/27 13:26:33;;;;;;;;;0.00;0.00;;;;;40.21;14.97;101526.41;5097246;27;45829;-88
2022/06/27 13:28:59;;;;;;;;;0.00;0.00;;;;;40.32;12.25;101528.41;5095694;27;45422;-89
2022/06/27 13:31:24;;;;;;;;;0.00;0.00;;;;;37.30;13.58;101529.22;5094772;27;61784;-89
2022/06/27 13:33:49;;;;;;;;;1.25;0.00;;;;;34.71;15.75;101533.63;5076962;27;54801;-89
2022/06/27 13:36:21;;;;;;;;;0.00;0.00;;;;;34.50;17.42;101535.16;5066078;27;46653;-90
2022/06/27 13:38:55;;;;;;;;;0.00;0.00;;;;;35.01;16.63;101541.78;5096653;27;45827;-89
2022/06/27 13:41:21;;;;;;;;;0.00;0.00;;;;;36.74;15.75;101532.00;5071181;27;48031;-88
2022/06/27 13:43:49;;;;;;;;;0.00;0.00;;;;;36.14;15.98;101542.31;5110297;27;45456;-90
2022/06/27 13:46:18;;;;;;;;;0.00;0.00;;;;;38.20;14.37;101549.94;5079395;27;47356;-91
2022/06/27 13:48:43;;;;;;;;;0.00;0.00;;;;;37.57;14.58;101557.31;5096733;27;45583;-90
2022/06/27 13:51:11;;;;;;;;;0.00;0.00;;;;;36.89;15.08;101550.88;5095494;27;47063;-91
2022/06/27 13:53:40;;;;;;;;;1.00;0.00;;;;;35.74;15.39;101544.63;5079528;27;45921;-90
2022/06/27 13:56:08;;;;;;;;;0.00;0.00;;;;;37.16;15.73;101563.56;5113563;27;45236;-87